sensor_id;sensor_type;location;lat;lon;timestamp;P1;durP1;ratioP1;P2;durP2;ratioP2
25581;SDS011;13462;50.764;4.332;2023-09-08T00:02:08;10.25;;;9.02;;
25581;SDS011;13462;50.764;4.332;2023-09-08T00:04:35;11.45;;;8.65;;
25581;SDS011;13462;50.764;4.332;2023-09-08T00:07:00;9.68;;;8.05;;
25581;SDS011;13462;50.764;4.332;2023-09-08T00:09:26;12.32;;;8.05;;
25581;SDS011;13462;50.764;4.332;2023-09-08T00:11:52;10.05;;;8.30;;
25581;SDS011;13462;50.764;4.332;2023-09-08T00:14:19;9.25;;;8.23;;
25581;SDS011;13462;50.764;4.332;2023-09-08T00:16:45;9.73;;;8.73;;
25581;SDS011;13462;50.764;4.332;2023-09-08T00:19:10;10.75;;;8.15;;
25581;SDS011;13462;50.764;4.332;2023-09-08T00:21:36;11.32;;;8.05;;
25581;SDS011;13462;50.764;4.332;2023-09-08T00:24:03;10.80;;;9.55;;
25581;SDS011;13462;50.764;4.332;2023-09-08T00:26:32;11.73;;;8.18;;
25581;SDS011;13462;50.764;4.332;2023-09-08T00:28:57;9.50;;;8.10;;
25581;SDS011;13462;50.764;4.332;2023-09-08T00:31:23;14.77;;;8.95;;
25581;SDS011;13462;50.764;4.332;2023-09-08T00:33:49;12.35;;;8.02;;
25581;SDS011;13462;50.764;4.332;2023-09-08T00:36:14;14.30;;;9.43;;
25581;SDS011;13462;50.764;4.332;2023-09-08T00:38:40;11.02;;;9.25;;
25581;SDS011;13462;50.764;4.332;2023-09-08T00:41:06;10.40;;;8.82;;
25581;SDS011;13462;50.764;4.332;2023-09-08T00:43:32;9.60;;;8.55;;
25581;SDS011;13462;50.764;4.332;2023-09-08T00:45:58;9.65;;;8.02;;
25581;SDS011;13462;50.764;4.332;2023-09-08T00:48:26;11.45;;;9.07;;
25581;SDS011;13462;50.764;4.332;2023-09-08T00:50:51;12.60;;;8.55;;
25581;SDS011;13462;50.764;4.332;2023-09-08T00:53:17;12.45;;;9.25;;
25581;SDS011;13462;50.764;4.332;2023-09-08T00:55:43;15.15;;;9.90;;
25581;SDS011;13462;50.764;4.332;2023-09-08T00:58:11;12.05;;;9.68;;
25581;SDS011;13462;50.764;4.332;2023-09-08T01:00:37;14.15;;;9.73;;
25581;SDS011;13462;50.764;4.332;2023-09-08T01:03:04;10.40;;;8.32;;
25581;SDS011;13462;50.764;4.332;2023-09-08T01:05:29;11.50;;;9.30;;
25581;SDS011;13462;50.764;4.332;2023-09-08T01:07:55;11.00;;;8.45;;
25581;SDS011;13462;50.764;4.332;2023-09-08T01:10:22;10.65;;;9.55;;
25581;SDS011;13462;50.764;4.332;2023-09-08T01:12:48;10.20;;;9.13;;
25581;SDS011;13462;50.764;4.332;2023-09-08T01:15:14;11.80;;;9.63;;
25581;SDS011;13462;50.764;4.332;2023-09-08T01:17:39;9.88;;;8.88;;
25581;SDS011;13462;50.764;4.332;2023-09-08T01:25:52;12.90;;;8.57;;
25581;SDS011;13462;50.764;4.332;2023-09-08T01:28:19;11.70;;;9.20;;
25581;SDS011;13462;50.764;4.332;2023-09-08T01:30:46;12.93;;;8.65;;
25581;SDS011;13462;50.764;4.332;2023-09-08T01:33:13;10.52;;;9.52;;
25581;SDS011;13462;50.764;4.332;2023-09-08T01:35:39;11.68;;;9.60;;
25581;SDS011;13462;50.764;4.332;2023-09-08T01:38:05;9.77;;;8.85;;
25581;SDS011;13462;50.764;4.332;2023-09-08T01:40:31;10.10;;;8.95;;
25581;SDS011;13462;50.764;4.332;2023-09-08T01:42:56;9.15;;;8.25;;
25581;SDS011;13462;50.764;4.332;2023-09-08T01:45:22;10.82;;;8.82;;
25581;SDS011;13462;50.764;4.332;2023-09-08T01:47:48;10.60;;;9.07;;
25581;SDS011;13462;50.764;4.332;2023-09-08T01:50:13;10.43;;;8.88;;
25581;SDS011;13462;50.764;4.332;2023-09-08T01:52:40;10.95;;;9.15;;
25581;SDS011;13462;50.764;4.332;2023-09-08T01:55:05;14.60;;;10.40;;
25581;SDS011;13462;50.764;4.332;2023-09-08T01:57:32;12.10;;;9.32;;
25581;SDS011;13462;50.764;4.332;2023-09-08T01:59:58;11.65;;;10.10;;
25581;SDS011;13462;50.764;4.332;2023-09-08T02:02:23;11.00;;;9.50;;
25581;SDS011;13462;50.764;4.332;2023-09-08T02:04:49;11.57;;;10.07;;
25581;SDS011;13462;50.764;4.332;2023-09-08T02:07:15;10.93;;;9.82;;
25581;SDS011;13462;50.764;4.332;2023-09-08T02:09:40;11.13;;;9.40;;
25581;SDS011;13462;50.764;4.332;2023-09-08T02:12:07;14.95;;;11.00;;
25581;SDS011;13462;50.764;4.332;2023-09-08T02:14:32;12.60;;;10.30;;
25581;SDS011;13462;50.764;4.332;2023-09-08T02:16:58;12.10;;;10.60;;
25581;SDS011;13462;50.764;4.332;2023-09-08T02:19:24;15.32;;;11.07;;
25581;SDS011;13462;50.764;4.332;2023-09-08T02:21:49;13.50;;;11.35;;
25581;SDS011;13462;50.764;4.332;2023-09-08T02:24:15;12.18;;;10.73;;
25581;SDS011;13462;50.764;4.332;2023-09-08T02:26:41;13.23;;;9.85;;
25581;SDS011;13462;50.764;4.332;2023-09-08T02:29:06;12.23;;;9.57;;
25581;SDS011;13462;50.764;4.332;2023-09-08T02:31:32;13.98;;;9.40;;
25581;SDS011;13462;50.764;4.332;2023-09-08T02:33:59;10.07;;;8.70;;
25581;SDS011;13462;50.764;4.332;2023-09-08T02:36:24;11.90;;;9.95;;
25581;SDS011;13462;50.764;4.332;2023-09-08T02:38:54;11.63;;;10.30;;
25581;SDS011;13462;50.764;4.332;2023-09-08T02:41:21;10.65;;;9.07;;
25581;SDS011;13462;50.764;4.332;2023-09-08T02:43:47;12.45;;;10.65;;
25581;SDS011;13462;50.764;4.332;2023-09-08T02:46:13;10.25;;;9.15;;
25581;SDS011;13462;50.764;4.332;2023-09-08T02:48:38;11.52;;;10.20;;
25581;SDS011;13462;50.764;4.332;2023-09-08T02:51:04;13.02;;;10.30;;
25581;SDS011;13462;50.764;4.332;2023-09-08T02:53:30;11.23;;;10.00;;
25581;SDS011;13462;50.764;4.332;2023-09-08T02:55:56;10.85;;;9.75;;
25581;SDS011;13462;50.764;4.332;2023-09-08T02:58:22;11.50;;;10.07;;
25581;SDS011;13462;50.764;4.332;2023-09-08T03:00:48;14.18;;;11.20;;
25581;SDS011;13462;50.764;4.332;2023-09-08T03:03:14;11.63;;;10.30;;
25581;SDS011;13462;50.764;4.332;2023-09-08T03:05:39;13.70;;;10.32;;
25581;SDS011;13462;50.764;4.332;2023-09-08T03:08:05;11.50;;;10.40;;
25581;SDS011;13462;50.764;4.332;2023-09-08T03:10:31;11.82;;;10.23;;
25581;SDS011;13462;50.764;4.332;2023-09-08T03:13:01;12.82;;;10.32;;
25581;SDS011;13462;50.764;4.332;2023-09-08T03:15:26;15.52;;;10.68;;
25581;SDS011;13462;50.764;4.332;2023-09-08T03:17:56;16.90;;;11.05;;
25581;SDS011;13462;50.764;4.332;2023-09-08T03:20:26;13.85;;;11.65;;
25581;SDS011;13462;50.764;4.332;2023-09-08T03:22:52;13.30;;;11.77;;
25581;SDS011;13462;50.764;4.332;2023-09-08T03:25:18;12.50;;;10.60;;
25581;SDS011;13462;50.764;4.332;2023-09-08T03:27:44;13.43;;;11.38;;
25581;SDS011;13462;50.764;4.332;2023-09-08T03:30:09;11.43;;;10.38;;
25581;SDS011;13462;50.764;4.332;2023-09-08T03:32:36;17.00;;;11.82;;
25581;SDS011;13462;50.764;4.332;2023-09-08T03:35:02;13.25;;;10.93;;
25581;SDS011;13462;50.764;4.332;2023-09-08T03:37:31;13.75;;;12.10;;
25581;SDS011;13462;50.764;4.332;2023-09-08T03:39:56;15.45;;;12.57;;
25581;SDS011;13462;50.764;4.332;2023-09-08T03:42:22;13.75;;;11.95;;
25581;SDS011;13462;50.764;4.332;2023-09-08T03:44:47;13.70;;;11.00;;
25581;SDS011;13462;50.764;4.332;2023-09-08T03:47:13;14.10;;;12.23;;
25581;SDS011;13462;50.764;4.332;2023-09-08T03:49:39;15.25;;;12.70;;
25581;SDS011;13462;50.764;4.332;2023-09-08T03:52:04;14.70;;;11.32;;
25581;SDS011;13462;50.764;4.332;2023-09-08T03:54:30;15.98;;;12.25;;
25581;SDS011;13462;50.764;4.332;2023-09-08T03:56:55;17.63;;;12.60;;
25581;SDS011;13462;50.764;4.332;2023-09-08T03:59:21;14.88;;;11.00;;
25581;SDS011;13462;50.764;4.332;2023-09-08T04:01:47;16.73;;;11.57;;
25581;SDS011;13462;50.764;4.332;2023-09-08T04:04:12;14.82;;;12.75;;
25581;SDS011;13462;50.764;4.332;2023-09-08T04:06:38;13.10;;;11.38;;
25581;SDS011;13462;50.764;4.332;2023-09-08T04:09:04;16.73;;;11.57;;
25581;SDS011;13462;50.764;4.332;2023-09-08T04:11:29;14.75;;;12.48;;
25581;SDS011;13462;50.764;4.332;2023-09-08T04:13:55;16.52;;;13.05;;
25581;SDS011;13462;50.764;4.332;2023-09-08T04:16:20;17.38;;;12.15;;
25581;SDS011;13462;50.764;4.332;2023-09-08T04:18:46;12.63;;;11.32;;
25581;SDS011;13462;50.764;4.332;2023-09-08T04:21:12;18.27;;;12.40;;
25581;SDS011;13462;50.764;4.332;2023-09-08T04:23:38;16.38;;;11.60;;
25581;SDS011;13462;50.764;4.332;2023-09-08T04:26:04;14.80;;;11.98;;
25581;SDS011;13462;50.764;4.332;2023-09-08T04:28:29;16.90;;;13.18;;
25581;SDS011;13462;50.764;4.332;2023-09-08T04:30:55;16.42;;;13.45;;
25581;SDS011;13462;50.764;4.332;2023-09-08T04:33:21;18.60;;;13.65;;
25581;SDS011;13462;50.764;4.332;2023-09-08T04:35:48;19.27;;;13.75;;
25581;SDS011;13462;50.764;4.332;2023-09-08T04:38:13;15.32;;;13.02;;
25581;SDS011;13462;50.764;4.332;2023-09-08T04:40:42;14.75;;;12.85;;
25581;SDS011;13462;50.764;4.332;2023-09-08T04:43:10;17.58;;;13.52;;
25581;SDS011;13462;50.764;4.332;2023-09-08T04:45:36;16.63;;;13.05;;
25581;SDS011;13462;50.764;4.332;2023-09-08T04:48:02;19.48;;;13.30;;
25581;SDS011;13462;50.764;4.332;2023-09-08T04:50:29;14.55;;;12.63;;
25581;SDS011;13462;50.764;4.332;2023-09-08T04:52:54;15.35;;;13.07;;
25581;SDS011;13462;50.764;4.332;2023-09-08T04:55:20;14.18;;;12.50;;
25581;SDS011;13462;50.764;4.332;2023-09-08T04:57:46;14.95;;;12.35;;
25581;SDS011;13462;50.764;4.332;2023-09-08T05:00:11;16.50;;;12.98;;
25581;SDS011;13462;50.764;4.332;2023-09-08T05:02:37;15.30;;;13.23;;
25581;SDS011;13462;50.764;4.332;2023-09-08T05:05:03;17.58;;;12.80;;
25581;SDS011;13462;50.764;4.332;2023-09-08T05:07:29;14.65;;;12.88;;
25581;SDS011;13462;50.764;4.332;2023-09-08T05:09:55;17.50;;;15.02;;
25581;SDS011;13462;50.764;4.332;2023-09-08T05:12:20;15.52;;;13.30;;
25581;SDS011;13462;50.764;4.332;2023-09-08T05:14:46;16.15;;;14.32;;
25581;SDS011;13462;50.764;4.332;2023-09-08T05:17:11;15.48;;;13.63;;
25581;SDS011;13462;50.764;4.332;2023-09-08T05:19:37;18.00;;;14.38;;
25581;SDS011;13462;50.764;4.332;2023-09-08T05:22:04;20.45;;;14.55;;
25581;SDS011;13462;50.764;4.332;2023-09-08T05:24:31;17.65;;;14.23;;
25581;SDS011;13462;50.764;4.332;2023-09-08T05:26:57;17.92;;;15.05;;
25581;SDS011;13462;50.764;4.332;2023-09-08T05:29:23;17.30;;;13.20;;
25581;SDS011;13462;50.764;4.332;2023-09-08T05:31:49;16.67;;;14.85;;
25581;SDS011;13462;50.764;4.332;2023-09-08T05:34:14;18.95;;;14.57;;
25581;SDS011;13462;50.764;4.332;2023-09-08T05:36:40;16.98;;;13.90;;
25581;SDS011;13462;50.764;4.332;2023-09-08T05:39:07;19.13;;;13.38;;
25581;SDS011;13462;50.764;4.332;2023-09-08T05:41:33;18.60;;;14.90;;
25581;SDS011;13462;50.764;4.332;2023-09-08T05:43:59;22.90;;;14.85;;
25581;SDS011;13462;50.764;4.332;2023-09-08T05:46:25;16.02;;;14.32;;
25581;SDS011;13462;50.764;4.332;2023-09-08T05:48:51;17.75;;;14.25;;
25581;SDS011;13462;50.764;4.332;2023-09-08T05:51:16;15.20;;;13.43;;
25581;SDS011;13462;50.764;4.332;2023-09-08T05:53:42;16.48;;;13.20;;
25581;SDS011;13462;50.764;4.332;2023-09-08T05:56:07;15.98;;;14.38;;
25581;SDS011;13462;50.764;4.332;2023-09-08T05:58:33;18.98;;;13.68;;
25581;SDS011;13462;50.764;4.332;2023-09-08T06:01:02;14.68;;;12.93;;
25581;SDS011;13462;50.764;4.332;2023-09-08T06:03:29;16.27;;;12.48;;
25581;SDS011;13462;50.764;4.332;2023-09-08T06:05:55;14.10;;;10.70;;
25581;SDS011;13462;50.764;4.332;2023-09-08T06:08:21;19.20;;;11.82;;
25581;SDS011;13462;50.764;4.332;2023-09-08T06:10:47;14.38;;;11.45;;
25581;SDS011;13462;50.764;4.332;2023-09-08T06:13:13;12.02;;;10.65;;
25581;SDS011;13462;50.764;4.332;2023-09-08T06:15:38;13.40;;;10.85;;
25581;SDS011;13462;50.764;4.332;2023-09-08T06:18:04;12.93;;;10.90;;
25581;SDS011;13462;50.764;4.332;2023-09-08T06:20:30;11.60;;;10.45;;
25581;SDS011;13462;50.764;4.332;2023-09-08T06:22:56;14.23;;;10.45;;
25581;SDS011;13462;50.764;4.332;2023-09-08T06:25:21;12.00;;;10.77;;
25581;SDS011;13462;50.764;4.332;2023-09-08T06:27:47;13.63;;;9.75;;
25581;SDS011;13462;50.764;4.332;2023-09-08T06:30:13;12.50;;;10.38;;
25581;SDS011;13462;50.764;4.332;2023-09-08T06:32:39;13.13;;;9.63;;
25581;SDS011;13462;50.764;4.332;2023-09-08T06:35:05;10.93;;;9.93;;
25581;SDS011;13462;50.764;4.332;2023-09-08T06:37:37;13.40;;;10.20;;
25581;SDS011;13462;50.764;4.332;2023-09-08T06:40:04;13.23;;;10.52;;
25581;SDS011;13462;50.764;4.332;2023-09-08T06:42:30;12.73;;;9.80;;
25581;SDS011;13462;50.764;4.332;2023-09-08T06:44:56;11.95;;;10.75;;
25581;SDS011;13462;50.764;4.332;2023-09-08T06:47:22;14.85;;;10.80;;
25581;SDS011;13462;50.764;4.332;2023-09-08T06:49:47;14.18;;;11.52;;
25581;SDS011;13462;50.764;4.332;2023-09-08T06:52:13;14.13;;;12.15;;
25581;SDS011;13462;50.764;4.332;2023-09-08T06:54:39;16.00;;;10.95;;
25581;SDS011;13462;50.764;4.332;2023-09-08T06:57:04;16.05;;;11.80;;
25581;SDS011;13462;50.764;4.332;2023-09-08T06:59:30;12.70;;;11.38;;
25581;SDS011;13462;50.764;4.332;2023-09-08T07:01:55;15.65;;;11.38;;
25581;SDS011;13462;50.764;4.332;2023-09-08T07:04:21;14.00;;;11.38;;
25581;SDS011;13462;50.764;4.332;2023-09-08T07:06:46;13.80;;;10.77;;
25581;SDS011;13462;50.764;4.332;2023-09-08T07:09:12;12.13;;;10.57;;
25581;SDS011;13462;50.764;4.332;2023-09-08T07:11:38;14.52;;;10.93;;
25581;SDS011;13462;50.764;4.332;2023-09-08T07:14:03;12.07;;;10.73;;
25581;SDS011;13462;50.764;4.332;2023-09-08T07:16:29;17.10;;;11.75;;
25581;SDS011;13462;50.764;4.332;2023-09-08T07:18:55;13.55;;;11.23;;
25581;SDS011;13462;50.764;4.332;2023-09-08T07:21:20;10.27;;;9.25;;
25581;SDS011;13462;50.764;4.332;2023-09-08T07:23:46;11.73;;;10.48;;
25581;SDS011;13462;50.764;4.332;2023-09-08T07:26:12;12.30;;;10.75;;
25581;SDS011;13462;50.764;4.332;2023-09-08T07:28:37;10.93;;;9.82;;
25581;SDS011;13462;50.764;4.332;2023-09-08T07:31:04;11.05;;;9.85;;
25581;SDS011;13462;50.764;4.332;2023-09-08T07:33:30;13.35;;;10.32;;
25581;SDS011;13462;50.764;4.332;2023-09-08T07:35:56;12.52;;;9.95;;
25581;SDS011;13462;50.764;4.332;2023-09-08T07:38:22;11.23;;;10.02;;
25581;SDS011;13462;50.764;4.332;2023-09-08T07:40:47;12.77;;;9.63;;
25581;SDS011;13462;50.764;4.332;2023-09-08T07:43:13;12.15;;;9.52;;
25581;SDS011;13462;50.764;4.332;2023-09-08T07:45:38;10.57;;;9.23;;
25581;SDS011;13462;50.764;4.332;2023-09-08T07:48:05;13.32;;;9.13;;
25581;SDS011;13462;50.764;4.332;2023-09-08T07:50:31;10.52;;;7.97;;
25581;SDS011;13462;50.764;4.332;2023-09-08T07:52:57;12.23;;;8.82;;
25581;SDS011;13462;50.764;4.332;2023-09-08T07:55:23;8.32;;;7.40;;
25581;SDS011;13462;50.764;4.332;2023-09-08T07:57:52;9.65;;;7.20;;
25581;SDS011;13462;50.764;4.332;2023-09-08T08:00:18;9.38;;;7.50;;
25581;SDS011;13462;50.764;4.332;2023-09-08T08:02:48;8.77;;;7.45;;
25581;SDS011;13462;50.764;4.332;2023-09-08T08:07:41;11.73;;;7.68;;
25581;SDS011;13462;50.764;4.332;2023-09-08T08:10:08;10.05;;;7.78;;
25581;SDS011;13462;50.764;4.332;2023-09-08T08:12:34;11.02;;;7.13;;
25581;SDS011;13462;50.764;4.332;2023-09-08T08:15:00;8.25;;;7.45;;
25581;SDS011;13462;50.764;4.332;2023-09-08T08:17:26;10.18;;;7.28;;
25581;SDS011;13462;50.764;4.332;2023-09-08T08:19:53;8.07;;;7.15;;
25581;SDS011;13462;50.764;4.332;2023-09-08T08:22:19;11.43;;;7.10;;
25581;SDS011;13462;50.764;4.332;2023-09-08T08:24:45;10.82;;;7.05;;
25581;SDS011;13462;50.764;4.332;2023-09-08T08:27:10;8.18;;;7.47;;
25581;SDS011;13462;50.764;4.332;2023-09-08T08:29:36;8.32;;;7.47;;
25581;SDS011;13462;50.764;4.332;2023-09-08T08:32:02;8.95;;;6.85;;
25581;SDS011;13462;50.764;4.332;2023-09-08T08:34:27;10.27;;;7.38;;
25581;SDS011;13462;50.764;4.332;2023-09-08T08:36:53;8.00;;;7.20;;
25581;SDS011;13462;50.764;4.332;2023-09-08T08:39:19;9.10;;;7.28;;
25581;SDS011;13462;50.764;4.332;2023-09-08T08:41:45;8.02;;;7.32;;
25581;SDS011;13462;50.764;4.332;2023-09-08T08:44:10;7.38;;;6.78;;
25581;SDS011;13462;50.764;4.332;2023-09-08T08:46:36;9.93;;;7.72;;
25581;SDS011;13462;50.764;4.332;2023-09-08T08:49:03;8.43;;;7.63;;
25581;SDS011;13462;50.764;4.332;2023-09-08T08:51:32;10.13;;;6.90;;
25581;SDS011;13462;50.764;4.332;2023-09-08T08:54:00;7.65;;;6.88;;
25581;SDS011;13462;50.764;4.332;2023-09-08T08:56:29;7.65;;;6.88;;
25581;SDS011;13462;50.764;4.332;2023-09-08T08:58:57;7.93;;;7.15;;
25581;SDS011;13462;50.764;4.332;2023-09-08T09:01:23;8.85;;;7.90;;
25581;SDS011;13462;50.764;4.332;2023-09-08T09:03:51;7.90;;;7.10;;
25581;SDS011;13462;50.764;4.332;2023-09-08T09:06:17;7.70;;;6.90;;
25581;SDS011;13462;50.764;4.332;2023-09-08T09:08:43;7.60;;;6.90;;
25581;SDS011;13462;50.764;4.332;2023-09-08T09:11:10;10.85;;;7.32;;
25581;SDS011;13462;50.764;4.332;2023-09-08T09:13:36;7.50;;;6.80;;
25581;SDS011;13462;50.764;4.332;2023-09-08T09:16:03;7.63;;;6.82;;
25581;SDS011;13462;50.764;4.332;2023-09-08T09:18:29;9.35;;;7.18;;
25581;SDS011;13462;50.764;4.332;2023-09-08T09:20:58;8.48;;;7.43;;
25581;SDS011;13462;50.764;4.332;2023-09-08T09:23:34;9.03;;;6.63;;
25581;SDS011;13462;50.764;4.332;2023-09-08T09:26:00;7.85;;;7.15;;
25581;SDS011;13462;50.764;4.332;2023-09-08T09:28:29;7.03;;;6.43;;
25581;SDS011;13462;50.764;4.332;2023-09-08T09:30:55;7.45;;;6.07;;
25581;SDS011;13462;50.764;4.332;2023-09-08T09:33:21;8.27;;;7.47;;
25581;SDS011;13462;50.764;4.332;2023-09-08T09:35:48;10.52;;;7.35;;
25581;SDS011;13462;50.764;4.332;2023-09-08T09:38:18;7.35;;;6.65;;
25581;SDS011;13462;50.764;4.332;2023-09-08T09:40:45;7.65;;;6.57;;
25581;SDS011;13462;50.764;4.332;2023-09-08T09:43:12;7.25;;;6.55;;
25581;SDS011;13462;50.764;4.332;2023-09-08T09:45:39;7.10;;;6.45;;
25581;SDS011;13462;50.764;4.332;2023-09-08T09:48:06;7.30;;;6.68;;
25581;SDS011;13462;50.764;4.332;2023-09-08T09:50:34;9.07;;;6.53;;
25581;SDS011;13462;50.764;4.332;2023-09-08T09:53:07;6.88;;;6.20;;
25581;SDS011;13462;50.764;4.332;2023-09-08T09:55:37;8.85;;;5.88;;
25581;SDS011;13462;50.764;4.332;2023-09-08T09:58:04;7.88;;;5.97;;
25581;SDS011;13462;50.764;4.332;2023-09-08T10:00:30;6.82;;;6.20;;
25581;SDS011;13462;50.764;4.332;2023-09-08T10:02:58;7.32;;;6.47;;
25581;SDS011;13462;50.764;4.332;2023-09-08T10:05:24;6.68;;;6.05;;
25581;SDS011;13462;50.764;4.332;2023-09-08T10:07:51;6.07;;;5.47;;
25581;SDS011;13462;50.764;4.332;2023-09-08T10:10:17;7.38;;;6.68;;
25581;SDS011;13462;50.764;4.332;2023-09-08T10:12:44;7.28;;;6.57;;
25581;SDS011;13462;50.764;4.332;2023-09-08T10:15:11;6.53;;;5.93;;
25581;SDS011;13462;50.764;4.332;2023-09-08T10:17:39;8.75;;;6.60;;
25581;SDS011;13462;50.764;4.332;2023-09-08T10:20:07;9.95;;;6.10;;
25581;SDS011;13462;50.764;4.332;2023-09-08T10:22:38;7.00;;;6.18;;
25581;SDS011;13462;50.764;4.332;2023-09-08T10:25:07;6.75;;;5.93;;
25581;SDS011;13462;50.764;4.332;2023-09-08T10:27:33;6.15;;;5.55;;
25581;SDS011;13462;50.764;4.332;2023-09-08T10:30:01;6.40;;;5.90;;
25581;SDS011;13462;50.764;4.332;2023-09-08T10:32:34;7.60;;;5.80;;
25581;SDS011;13462;50.764;4.332;2023-09-08T10:35:02;8.73;;;6.25;;
25581;SDS011;13462;50.764;4.332;2023-09-08T10:37:29;6.63;;;6.03;;
25581;SDS011;13462;50.764;4.332;2023-09-08T10:39:55;6.80;;;6.00;;
25581;SDS011;13462;50.764;4.332;2023-09-08T10:42:41;7.28;;;5.57;;
25581;SDS011;13462;50.764;4.332;2023-09-08T10:45:18;6.57;;;5.75;;
25581;SDS011;13462;50.764;4.332;2023-09-08T10:50:17;7.93;;;6.15;;
25581;SDS011;13462;50.764;4.332;2023-09-08T10:53:07;7.43;;;5.65;;
25581;SDS011;13462;50.764;4.332;2023-09-08T10:55:44;8.02;;;5.47;;
25581;SDS011;13462;50.764;4.332;2023-09-08T10:58:34;6.43;;;5.25;;
25581;SDS011;13462;50.764;4.332;2023-09-08T11:01:03;5.63;;;4.47;;
25581;SDS011;13462;50.764;4.332;2023-09-08T11:06:07;6.53;;;5.05;;
25581;SDS011;13462;50.764;4.332;2023-09-08T11:08:34;7.65;;;5.13;;
25581;SDS011;13462;50.764;4.332;2023-09-08T11:13:29;6.07;;;4.80;;
25581;SDS011;13462;50.764;4.332;2023-09-08T11:15:55;7.38;;;4.85;;
25581;SDS011;13462;50.764;4.332;2023-09-08T11:18:27;6.72;;;5.25;;
25581;SDS011;13462;50.764;4.332;2023-09-08T11:20:53;5.57;;;5.03;;
25581;SDS011;13462;50.764;4.332;2023-09-08T11:23:23;7.72;;;5.40;;
25581;SDS011;13462;50.764;4.332;2023-09-08T11:28:16;7.25;;;4.43;;
25581;SDS011;13462;50.764;4.332;2023-09-08T11:30:42;6.13;;;5.03;;
25581;SDS011;13462;50.764;4.332;2023-09-08T11:33:14;5.35;;;4.85;;
25581;SDS011;13462;50.764;4.332;2023-09-08T11:35:48;5.70;;;5.20;;
25581;SDS011;13462;50.764;4.332;2023-09-08T11:38:14;7.35;;;5.60;;
25581;SDS011;13462;50.764;4.332;2023-09-08T11:40:40;8.50;;;5.32;;
25581;SDS011;13462;50.764;4.332;2023-09-08T11:43:06;7.60;;;5.65;;
25581;SDS011;13462;50.764;4.332;2023-09-08T11:45:35;6.15;;;5.32;;
25581;SDS011;13462;50.764;4.332;2023-09-08T11:48:01;8.98;;;6.53;;
25581;SDS011;13462;50.764;4.332;2023-09-08T11:50:29;6.60;;;4.88;;
25581;SDS011;13462;50.764;4.332;2023-09-08T11:52:55;6.50;;;5.78;;
25581;SDS011;13462;50.764;4.332;2023-09-08T11:55:22;8.20;;;5.38;;
25581;SDS011;13462;50.764;4.332;2023-09-08T11:57:49;6.22;;;4.93;;
25581;SDS011;13462;50.764;4.332;2023-09-08T12:00:20;7.88;;;5.78;;
25581;SDS011;13462;50.764;4.332;2023-09-08T12:02:47;7.93;;;5.70;;
25581;SDS011;13462;50.764;4.332;2023-09-08T12:05:24;6.95;;;5.70;;
25581;SDS011;13462;50.764;4.332;2023-09-08T12:07:51;11.25;;;5.15;;
25581;SDS011;13462;50.764;4.332;2023-09-08T12:10:18;6.25;;;5.60;;
25581;SDS011;13462;50.764;4.332;2023-09-08T12:12:44;8.82;;;5.65;;
25581;SDS011;13462;50.764;4.332;2023-09-08T12:15:11;7.97;;;5.15;;
25581;SDS011;13462;50.764;4.332;2023-09-08T12:17:47;8.80;;;5.00;;
25581;SDS011;13462;50.764;4.332;2023-09-08T12:20:14;7.20;;;4.88;;
25581;SDS011;13462;50.764;4.332;2023-09-08T12:22:47;8.43;;;5.38;;
25581;SDS011;13462;50.764;4.332;2023-09-08T12:25:16;9.27;;;4.70;;
25581;SDS011;13462;50.764;4.332;2023-09-08T12:27:42;7.93;;;5.30;;
25581;SDS011;13462;50.764;4.332;2023-09-08T12:30:15;7.85;;;4.47;;
25581;SDS011;13462;50.764;4.332;2023-09-08T12:32:44;5.65;;;4.65;;
25581;SDS011;13462;50.764;4.332;2023-09-08T12:35:12;6.63;;;5.30;;
25581;SDS011;13462;50.764;4.332;2023-09-08T12:37:38;7.75;;;5.28;;
25581;SDS011;13462;50.764;4.332;2023-09-08T12:40:04;6.22;;;4.63;;
25581;SDS011;13462;50.764;4.332;2023-09-08T12:42:30;8.38;;;5.20;;
25581;SDS011;13462;50.764;4.332;2023-09-08T12:44:57;9.65;;;5.13;;
25581;SDS011;13462;50.764;4.332;2023-09-08T12:47:22;10.45;;;5.10;;
25581;SDS011;13462;50.764;4.332;2023-09-08T12:49:48;8.68;;;4.93;;
25581;SDS011;13462;50.764;4.332;2023-09-08T12:52:14;9.50;;;4.93;;
25581;SDS011;13462;50.764;4.332;2023-09-08T12:54:39;9.93;;;5.03;;
25581;SDS011;13462;50.764;4.332;2023-09-08T12:57:05;9.50;;;5.00;;
25581;SDS011;13462;50.764;4.332;2023-09-08T12:59:31;13.15;;;4.95;;
25581;SDS011;13462;50.764;4.332;2023-09-08T13:01:56;10.98;;;4.65;;
25581;SDS011;13462;50.764;4.332;2023-09-08T13:04:23;10.98;;;5.80;;
25581;SDS011;13462;50.764;4.332;2023-09-08T13:06:49;9.20;;;5.30;;
25581;SDS011;13462;50.764;4.332;2023-09-08T13:09:15;11.05;;;4.88;;
25581;SDS011;13462;50.764;4.332;2023-09-08T13:11:41;14.25;;;5.00;;
25581;SDS011;13462;50.764;4.332;2023-09-08T13:14:07;9.00;;;5.43;;
25581;SDS011;13462;50.764;4.332;2023-09-08T13:16:33;9.25;;;5.07;;
25581;SDS011;13462;50.764;4.332;2023-09-08T13:18:59;12.20;;;5.30;;
25581;SDS011;13462;50.764;4.332;2023-09-08T13:21:25;9.85;;;5.63;;
25581;SDS011;13462;50.764;4.332;2023-09-08T13:23:50;8.95;;;4.95;;
25581;SDS011;13462;50.764;4.332;2023-09-08T13:26:16;15.23;;;5.18;;
25581;SDS011;13462;50.764;4.332;2023-09-08T13:28:42;15.32;;;4.63;;
25581;SDS011;13462;50.764;4.332;2023-09-08T13:31:08;13.25;;;4.75;;
25581;SDS011;13462;50.764;4.332;2023-09-08T13:33:34;10.40;;;4.93;;
25581;SDS011;13462;50.764;4.332;2023-09-08T13:35:59;11.93;;;5.10;;
25581;SDS011;13462;50.764;4.332;2023-09-08T13:38:25;12.45;;;5.65;;
25581;SDS011;13462;50.764;4.332;2023-09-08T13:40:51;16.40;;;5.43;;
25581;SDS011;13462;50.764;4.332;2023-09-08T13:43:17;12.27;;;5.38;;
25581;SDS011;13462;50.764;4.332;2023-09-08T13:45:43;11.75;;;5.22;;
25581;SDS011;13462;50.764;4.332;2023-09-08T13:48:09;15.15;;;5.07;;
25581;SDS011;13462;50.764;4.332;2023-09-08T13:50:34;12.50;;;5.53;;
25581;SDS011;13462;50.764;4.332;2023-09-08T13:53:00;10.65;;;5.15;;
25581;SDS011;13462;50.764;4.332;2023-09-08T13:55:26;11.52;;;5.50;;
25581;SDS011;13462;50.764;4.332;2023-09-08T13:57:51;9.95;;;5.32;;
25581;SDS011;13462;50.764;4.332;2023-09-08T14:00:17;10.32;;;5.35;;
25581;SDS011;13462;50.764;4.332;2023-09-08T14:02:43;12.95;;;5.07;;
25581;SDS011;13462;50.764;4.332;2023-09-08T14:05:09;12.10;;;5.88;;
25581;SDS011;13462;50.764;4.332;2023-09-08T14:07:35;14.90;;;6.13;;
25581;SDS011;13462;50.764;4.332;2023-09-08T14:10:00;14.55;;;6.22;;
25581;SDS011;13462;50.764;4.332;2023-09-08T14:12:26;16.90;;;5.97;;
25581;SDS011;13462;50.764;4.332;2023-09-08T14:14:52;13.73;;;6.68;;
25581;SDS011;13462;50.764;4.332;2023-09-08T14:17:17;12.63;;;5.85;;
25581;SDS011;13462;50.764;4.332;2023-09-08T14:19:43;16.63;;;6.13;;
25581;SDS011;13462;50.764;4.332;2023-09-08T14:22:09;12.70;;;6.32;;
25581;SDS011;13462;50.764;4.332;2023-09-08T14:24:34;17.45;;;6.40;;
25581;SDS011;13462;50.764;4.332;2023-09-08T14:27:00;16.77;;;5.90;;
25581;SDS011;13462;50.764;4.332;2023-09-08T14:29:26;15.68;;;6.35;;
25581;SDS011;13462;50.764;4.332;2023-09-08T14:31:51;14.88;;;6.45;;
25581;SDS011;13462;50.764;4.332;2023-09-08T14:34:17;12.40;;;6.00;;
25581;SDS011;13462;50.764;4.332;2023-09-08T14:36:43;15.80;;;6.00;;
25581;SDS011;13462;50.764;4.332;2023-09-08T14:39:09;16.98;;;7.63;;
25581;SDS011;13462;50.764;4.332;2023-09-08T14:41:34;12.95;;;6.05;;
25581;SDS011;13462;50.764;4.332;2023-09-08T14:44:00;17.55;;;6.25;;
25581;SDS011;13462;50.764;4.332;2023-09-08T14:46:25;15.07;;;6.90;;
25581;SDS011;13462;50.764;4.332;2023-09-08T14:48:51;11.40;;;6.40;;